BAW409 EGLL-EDDF
Flight info
| Callsign | BAW409 |
|---|---|
| Flight time | 1h 11m |
| Altitude | 35000 |
| Route | BPK Q295 MATCH DCT REDFA DCT TACHA DCT NOLRU DCT DIXAT DIXAT1A |
| Aircraft | A320/M-SDE3FGHIRWY/LB1 |
Departure
| Time | 2026-05-06 13:07 |
|---|---|
| Airport | London Heathrow Airport (EGLL) |
Arrival
| Time | 2026-05-06 14:18 |
|---|---|
| Airport | Frankfurt Main Airport (EDDF) |
| Time | Latitude | Longitude | Altitude | Speed | Heading |
|---|---|---|---|---|---|
| 2026-05-06 12:43 | 51.47399 | -0.48589 | 86 ft | 0 kts | 270° |
| 2026-05-06 13:00 | 51.47399 | -0.48587 | 86 ft | 2 kts | 270° |
| 2026-05-06 13:00 | 51.47400 | -0.48546 | 86 ft | 4 kts | 263° |
| 2026-05-06 13:00 | 51.47405 | -0.48504 | 88 ft | 4 kts | 245° |
| 2026-05-06 13:00 | 51.47420 | -0.48476 | 88 ft | 4 kts | 188° |
| 2026-05-06 13:01 | 51.47424 | -0.48475 | 89 ft | 0 kts | 181° |
| 2026-05-06 13:02 | 51.47408 | -0.48475 | 88 ft | 5 kts | 181° |
| 2026-05-06 13:03 | 51.47360 | -0.48474 | 86 ft | 9 kts | 178° |
| 2026-05-06 13:03 | 51.47284 | -0.48473 | 86 ft | 12 kts | 180° |
| 2026-05-06 13:03 | 51.47191 | -0.48474 | 86 ft | 14 kts | 180° |
| 2026-05-06 13:03 | 51.47087 | -0.48471 | 88 ft | 16 kts | 180° |
| 2026-05-06 13:04 | 51.46973 | -0.48471 | 86 ft | 17 kts | 180° |
| 2026-05-06 13:04 | 51.46856 | -0.48470 | 86 ft | 14 kts | 179° |
| 2026-05-06 13:04 | 51.46757 | -0.48468 | 86 ft | 15 kts | 179° |
| 2026-05-06 13:04 | 51.46659 | -0.48467 | 86 ft | 11 kts | 179° |
| 2026-05-06 13:05 | 51.46604 | -0.48467 | 86 ft | 7 kts | 180° |
| 2026-05-06 13:05 | 51.46562 | -0.48467 | 87 ft | 7 kts | 180° |
| 2026-05-06 13:05 | 51.46507 | -0.48467 | 87 ft | 9 kts | 180° |
| 2026-05-06 13:05 | 51.46480 | -0.48394 | 87 ft | 9 kts | 82° |
| 2026-05-06 13:06 | 51.46481 | -0.48080 | 87 ft | 56 kts | 90° |
| 2026-05-06 13:06 | 51.46486 | -0.47136 | 87 ft | 112 kts | 90° |
| 2026-05-06 13:06 | 51.46495 | -0.45645 | 92 ft | 159 kts | 92° |
| 2026-05-06 13:06 | 51.46473 | -0.43869 | 655 ft | 160 kts | 86° |
| 2026-05-06 13:07 | 51.46467 | -0.42028 | 1246 ft | 166 kts | 82° |
| 2026-05-06 13:07 | 51.46929 | -0.40300 | 1691 ft | 180 kts | 47° |
| 2026-05-06 13:07 | 51.47833 | -0.38733 | 2065 ft | 205 kts | 44° |
| 2026-05-06 13:07 | 51.48835 | -0.36898 | 2562 ft | 230 kts | 46° |
| 2026-05-06 13:08 | 51.49903 | -0.34846 | 3280 ft | 247 kts | 48° |
| 2026-05-06 13:08 | 51.50960 | -0.32670 | 4315 ft | 251 kts | 50° |
| 2026-05-06 13:08 | 51.52028 | -0.30409 | 5355 ft | 256 kts | 50° |
| 2026-05-06 13:08 | 51.53118 | -0.28085 | 6336 ft | 262 kts | 50° |
| 2026-05-06 13:09 | 51.54215 | -0.25742 | 7251 ft | 267 kts | 50° |
| 2026-05-06 13:09 | 51.55345 | -0.23333 | 8164 ft | 273 kts | 50° |
| 2026-05-06 13:09 | 51.56504 | -0.20863 | 9054 ft | 279 kts | 50° |
| 2026-05-06 13:09 | 51.57692 | -0.18340 | 9975 ft | 285 kts | 50° |
| 2026-05-06 13:10 | 51.58925 | -0.15727 | 10465 ft | 304 kts | 50° |
| 2026-05-06 13:10 | 51.60240 | -0.12938 | 10744 ft | 327 kts | 50° |
| 2026-05-06 13:10 | 51.61656 | -0.09923 | 11165 ft | 343 kts | 50° |
| 2026-05-06 13:10 | 51.63114 | -0.06810 | 11864 ft | 350 kts | 50° |
| 2026-05-06 13:11 | 51.64596 | -0.03640 | 12579 ft | 355 kts | 50° |
| 2026-05-06 13:11 | 51.66078 | -0.00474 | 13292 ft | 360 kts | 51° |
| 2026-05-06 13:11 | 51.67596 | 0.02776 | 13930 ft | 365 kts | 51° |
| 2026-05-06 13:11 | 51.69132 | 0.06063 | 14555 ft | 370 kts | 51° |
| 2026-05-06 13:12 | 51.70692 | 0.09407 | 14885 ft | 372 kts | 51° |
| 2026-05-06 13:12 | 51.72240 | 0.12729 | 14982 ft | 373 kts | 51° |
| 2026-05-06 13:12 | 51.73797 | 0.16082 | 14998 ft | 372 kts | 52° |
| 2026-05-06 13:12 | 51.75359 | 0.19450 | 15000 ft | 373 kts | 51° |
| 2026-05-06 13:13 | 51.76868 | 0.22831 | 15287 ft | 377 kts | 56° |
| 2026-05-06 13:13 | 51.78069 | 0.26617 | 15905 ft | 382 kts | 67° |
| 2026-05-06 13:13 | 51.78852 | 0.30772 | 16572 ft | 386 kts | 75° |
| 2026-05-06 13:13 | 51.79512 | 0.34959 | 17213 ft | 389 kts | 75° |
| 2026-05-06 13:14 | 51.80188 | 0.39229 | 17853 ft | 393 kts | 75° |
| 2026-05-06 13:14 | 51.80874 | 0.43547 | 18500 ft | 397 kts | 75° |
| 2026-05-06 13:14 | 51.81560 | 0.47855 | 19034 ft | 401 kts | 75° |
| 2026-05-06 13:14 | 51.82261 | 0.52250 | 19632 ft | 404 kts | 75° |
| 2026-05-06 13:15 | 51.82959 | 0.56638 | 20164 ft | 409 kts | 75° |
| 2026-05-06 13:15 | 51.83668 | 0.61120 | 20754 ft | 411 kts | 75° |
| 2026-05-06 13:15 | 51.84379 | 0.65634 | 21320 ft | 415 kts | 75° |
| 2026-05-06 13:15 | 51.85085 | 0.70124 | 21837 ft | 418 kts | 76° |
| 2026-05-06 13:16 | 51.85799 | 0.74709 | 22385 ft | 421 kts | 76° |
| 2026-05-06 13:16 | 51.86514 | 0.79328 | 22888 ft | 424 kts | 76° |
| 2026-05-06 13:16 | 51.87230 | 0.83989 | 23421 ft | 427 kts | 76° |
| 2026-05-06 13:16 | 51.87947 | 0.88649 | 23827 ft | 431 kts | 76° |
| 2026-05-06 13:17 | 51.88674 | 0.93375 | 24268 ft | 433 kts | 76° |
| 2026-05-06 13:17 | 51.89404 | 0.98124 | 24678 ft | 436 kts | 76° |
| 2026-05-06 13:17 | 51.90135 | 1.02877 | 25130 ft | 437 kts | 76° |
| 2026-05-06 13:17 | 51.90869 | 1.07663 | 25583 ft | 439 kts | 76° |
| 2026-05-06 13:18 | 51.91606 | 1.12481 | 26016 ft | 441 kts | 76° |
| 2026-05-06 13:18 | 51.92334 | 1.17269 | 26436 ft | 443 kts | 76° |
| 2026-05-06 13:18 | 51.93072 | 1.22149 | 26848 ft | 446 kts | 76° |
| 2026-05-06 13:18 | 51.93815 | 1.27057 | 27258 ft | 448 kts | 76° |
| 2026-05-06 13:19 | 51.94554 | 1.31937 | 27655 ft | 450 kts | 77° |
| 2026-05-06 13:19 | 51.95299 | 1.36894 | 28048 ft | 453 kts | 77° |
| 2026-05-06 13:19 | 51.96049 | 1.41908 | 28444 ft | 455 kts | 77° |
| 2026-05-06 13:19 | 51.96783 | 1.46848 | 28813 ft | 457 kts | 77° |
| 2026-05-06 13:20 | 51.97531 | 1.51895 | 29133 ft | 461 kts | 77° |
| 2026-05-06 13:20 | 51.98284 | 1.56995 | 29471 ft | 464 kts | 77° |
| 2026-05-06 13:20 | 51.99028 | 1.62043 | 29826 ft | 466 kts | 77° |
| 2026-05-06 13:20 | 51.99783 | 1.67177 | 30153 ft | 469 kts | 77° |
| 2026-05-06 13:21 | 52.00545 | 1.72360 | 30451 ft | 471 kts | 77° |
| 2026-05-06 13:21 | 52.01300 | 1.77489 | 30802 ft | 471 kts | 77° |
| 2026-05-06 13:21 | 52.02059 | 1.82666 | 31246 ft | 469 kts | 77° |
| 2026-05-06 13:21 | 52.02807 | 1.87808 | 31687 ft | 467 kts | 77° |
| 2026-05-06 13:22 | 52.03552 | 1.92962 | 32124 ft | 466 kts | 77° |
| 2026-05-06 13:22 | 52.04291 | 1.98098 | 32548 ft | 465 kts | 77° |
| 2026-05-06 13:22 | 52.05019 | 2.03148 | 32952 ft | 465 kts | 77° |
| 2026-05-06 13:22 | 52.05753 | 2.08269 | 33366 ft | 464 kts | 77° |
| 2026-05-06 13:23 | 52.06481 | 2.13382 | 33804 ft | 463 kts | 77° |
| 2026-05-06 13:23 | 52.07208 | 2.18491 | 34171 ft | 463 kts | 77° |
| 2026-05-06 13:23 | 52.07687 | 2.21867 | 34403 ft | 462 kts | 77° |
| 2026-05-06 13:23 | 52.08646 | 2.28649 | 34812 ft | 463 kts | 77° |
| 2026-05-06 13:24 | 52.09366 | 2.33749 | 34939 ft | 463 kts | 77° |
| 2026-05-06 13:24 | 52.10798 | 2.43949 | 34958 ft | 461 kts | 77° |
| 2026-05-06 13:25 | 52.12039 | 2.52415 | 34958 ft | 461 kts | 75° |
| 2026-05-06 13:25 | 52.13902 | 2.62439 | 34951 ft | 462 kts | 72° |
| 2026-05-06 13:26 | 52.15916 | 2.72321 | 34953 ft | 462 kts | 72° |
| 2026-05-06 13:26 | 52.17868 | 2.82254 | 34949 ft | 462 kts | 73° |
| 2026-05-06 13:27 | 52.19745 | 2.92322 | 34949 ft | 462 kts | 74° |
| 2026-05-06 13:27 | 52.21584 | 3.02339 | 34943 ft | 462 kts | 74° |
| 2026-05-06 13:28 | 52.23382 | 3.12061 | 34946 ft | 462 kts | 74° |
| 2026-05-06 13:28 | 52.24465 | 3.22204 | 34948 ft | 459 kts | 91° |
| 2026-05-06 13:29 | 52.23549 | 3.32542 | 34935 ft | 454 kts | 110° |
| 2026-05-06 13:29 | 52.23222 | 3.34127 | 34935 ft | 453 kts | 112° |
| 2026-05-06 13:32 | 52.17235 | 3.58748 | 34945 ft | 454 kts | 111° |
| 2026-05-06 13:33 | 52.15081 | 3.68362 | 34938 ft | 453 kts | 114° |
| 2026-05-06 13:33 | 52.12741 | 3.77928 | 34924 ft | 452 kts | 114° |
| 2026-05-06 13:34 | 52.10383 | 3.87373 | 34919 ft | 452 kts | 115° |
| 2026-05-06 13:34 | 52.08053 | 3.96820 | 34907 ft | 451 kts | 114° |
| 2026-05-06 13:35 | 52.05725 | 4.06329 | 34909 ft | 451 kts | 113° |
| 2026-05-06 13:35 | 52.03405 | 4.15748 | 34902 ft | 450 kts | 114° |
| 2026-05-06 13:36 | 52.01068 | 4.25170 | 34893 ft | 450 kts | 114° |
| 2026-05-06 13:36 | 51.98719 | 4.34584 | 34890 ft | 450 kts | 114° |
| 2026-05-06 13:37 | 51.96360 | 4.43999 | 34886 ft | 450 kts | 114° |
| 2026-05-06 13:37 | 51.94012 | 4.53378 | 34885 ft | 449 kts | 114° |
| 2026-05-06 13:38 | 51.91646 | 4.62755 | 34886 ft | 449 kts | 114° |
| 2026-05-06 13:38 | 51.89278 | 4.72080 | 34881 ft | 449 kts | 114° |
| 2026-05-06 13:39 | 51.86892 | 4.81456 | 34881 ft | 449 kts | 114° |
| 2026-05-06 13:39 | 51.84514 | 4.90788 | 34879 ft | 449 kts | 114° |
| 2026-05-06 13:40 | 51.82140 | 5.00072 | 34883 ft | 449 kts | 114° |
| 2026-05-06 13:40 | 51.79732 | 5.09435 | 34885 ft | 449 kts | 114° |
| 2026-05-06 13:41 | 51.77331 | 5.18704 | 34884 ft | 448 kts | 114° |
| 2026-05-06 13:41 | 51.74912 | 5.27982 | 34879 ft | 448 kts | 115° |
| 2026-05-06 13:42 | 51.72510 | 5.37202 | 34873 ft | 448 kts | 115° |
| 2026-05-06 13:42 | 51.70082 | 5.46510 | 34884 ft | 448 kts | 115° |
| 2026-05-06 13:43 | 51.67652 | 5.55757 | 34867 ft | 448 kts | 115° |
| 2026-05-06 13:43 | 51.65218 | 5.64956 | 34893 ft | 447 kts | 115° |
| 2026-05-06 13:44 | 51.63314 | 5.72139 | 34889 ft | 447 kts | 115° |
| 2026-05-06 13:44 | 51.61786 | 5.77893 | 34885 ft | 447 kts | 115° |
| 2026-05-06 13:45 | 51.59333 | 5.87112 | 34877 ft | 447 kts | 115° |
| 2026-05-06 13:45 | 51.55652 | 6.00885 | 34885 ft | 447 kts | 115° |
| 2026-05-06 13:46 | 51.53190 | 6.10033 | 34882 ft | 447 kts | 115° |
| 2026-05-06 13:46 | 51.50710 | 6.19184 | 34879 ft | 448 kts | 115° |
| 2026-05-06 13:47 | 51.48301 | 6.28371 | 34854 ft | 448 kts | 114° |
| 2026-05-06 13:47 | 51.46044 | 6.37729 | 34856 ft | 450 kts | 112° |
| 2026-05-06 13:48 | 51.43796 | 6.47121 | 34844 ft | 450 kts | 113° |
| 2026-05-06 13:48 | 51.41522 | 6.56411 | 34825 ft | 450 kts | 114° |
| 2026-05-06 13:49 | 51.39195 | 6.65748 | 34833 ft | 451 kts | 114° |
| 2026-05-06 13:49 | 51.36854 | 6.75084 | 34820 ft | 451 kts | 114° |
| 2026-05-06 13:50 | 51.34531 | 6.84356 | 34825 ft | 451 kts | 114° |
| 2026-05-06 13:50 | 51.33357 | 6.89024 | 34610 ft | 452 kts | 114° |
| 2026-05-06 13:50 | 51.32179 | 6.93694 | 34398 ft | 451 kts | 114° |
| 2026-05-06 13:51 | 51.31003 | 6.98350 | 34157 ft | 451 kts | 114° |
| 2026-05-06 13:51 | 51.29827 | 7.03003 | 33920 ft | 450 kts | 114° |
| 2026-05-06 13:51 | 51.28565 | 7.07518 | 33135 ft | 451 kts | 121° |
| 2026-05-06 13:51 | 51.26834 | 7.11716 | 32148 ft | 454 kts | 130° |
| 2026-05-06 13:52 | 51.24670 | 7.15422 | 31172 ft | 455 kts | 139° |
| 2026-05-06 13:52 | 51.22149 | 7.18523 | 30136 ft | 458 kts | 148° |
| 2026-05-06 13:52 | 51.19344 | 7.20947 | 29196 ft | 457 kts | 154° |
| 2026-05-06 13:52 | 51.16534 | 7.23138 | 28577 ft | 450 kts | 154° |
| 2026-05-06 13:53 | 51.13754 | 7.25328 | 27925 ft | 443 kts | 154° |
| 2026-05-06 13:53 | 51.11012 | 7.27510 | 27265 ft | 438 kts | 154° |
| 2026-05-06 13:53 | 51.08311 | 7.29707 | 26619 ft | 433 kts | 153° |
| 2026-05-06 13:53 | 51.05658 | 7.31909 | 25982 ft | 428 kts | 153° |
| 2026-05-06 13:54 | 51.03030 | 7.34104 | 25352 ft | 423 kts | 153° |
| 2026-05-06 13:54 | 51.02970 | 7.34153 | 25338 ft | 423 kts | 153° |
| 2026-05-06 13:54 | 51.00691 | 7.36055 | 24793 ft | 420 kts | 153° |
| 2026-05-06 13:54 | 50.98107 | 7.38199 | 24173 ft | 416 kts | 153° |
| 2026-05-06 13:55 | 50.95545 | 7.40314 | 23563 ft | 412 kts | 153° |
| 2026-05-06 13:55 | 50.93030 | 7.42381 | 22904 ft | 409 kts | 153° |
| 2026-05-06 13:55 | 50.90502 | 7.44446 | 22327 ft | 403 kts | 154° |
| 2026-05-06 13:55 | 50.88056 | 7.46445 | 21766 ft | 398 kts | 154° |
| 2026-05-06 13:56 | 50.85601 | 7.48453 | 21242 ft | 393 kts | 154° |
| 2026-05-06 13:56 | 50.83175 | 7.50440 | 20696 ft | 390 kts | 154° |
| 2026-05-06 13:56 | 50.80772 | 7.52409 | 20180 ft | 386 kts | 155° |
| 2026-05-06 13:56 | 50.78398 | 7.54349 | 19686 ft | 381 kts | 155° |
| 2026-05-06 13:57 | 50.76080 | 7.56237 | 19192 ft | 377 kts | 156° |
| 2026-05-06 13:57 | 50.73749 | 7.58129 | 18697 ft | 373 kts | 156° |
| 2026-05-06 13:57 | 50.71443 | 7.59995 | 18186 ft | 370 kts | 156° |
| 2026-05-06 13:57 | 50.69163 | 7.61837 | 17643 ft | 366 kts | 156° |
| 2026-05-06 13:58 | 50.66863 | 7.63693 | 17203 ft | 373 kts | 156° |
| 2026-05-06 13:58 | 50.64574 | 7.65544 | 16750 ft | 373 kts | 156° |
| 2026-05-06 13:58 | 50.62263 | 7.67412 | 16289 ft | 371 kts | 155° |
| 2026-05-06 13:58 | 50.59969 | 7.69267 | 15855 ft | 369 kts | 155° |
| 2026-05-06 13:59 | 50.57683 | 7.71114 | 15430 ft | 367 kts | 155° |
| 2026-05-06 13:59 | 50.55415 | 7.72948 | 15015 ft | 366 kts | 155° |
| 2026-05-06 13:59 | 50.53177 | 7.74755 | 14601 ft | 364 kts | 155° |
| 2026-05-06 13:59 | 50.51683 | 7.75958 | 14330 ft | 362 kts | 155° |
| 2026-05-06 14:00 | 50.49441 | 7.77758 | 13918 ft | 360 kts | 155° |
| 2026-05-06 14:00 | 50.47211 | 7.79543 | 13502 ft | 358 kts | 155° |
| 2026-05-06 14:00 | 50.44278 | 7.81901 | 12929 ft | 356 kts | 154° |
| 2026-05-06 14:00 | 50.42856 | 7.83315 | 12629 ft | 357 kts | 146° |
| 2026-05-06 14:01 | 50.40921 | 7.85688 | 11992 ft | 355 kts | 144° |
| 2026-05-06 14:01 | 50.38993 | 7.88092 | 11387 ft | 352 kts | 144° |
| 2026-05-06 14:01 | 50.37088 | 7.90475 | 10795 ft | 348 kts | 144° |
| 2026-05-06 14:01 | 50.35209 | 7.92817 | 10399 ft | 340 kts | 144° |
| 2026-05-06 14:02 | 50.33390 | 7.95069 | 10122 ft | 329 kts | 144° |
| 2026-05-06 14:02 | 50.31631 | 7.97243 | 9849 ft | 320 kts | 144° |
| 2026-05-06 14:02 | 50.29923 | 7.99361 | 9787 ft | 304 kts | 144° |
| 2026-05-06 14:02 | 50.28303 | 8.01368 | 9802 ft | 291 kts | 145° |
| 2026-05-06 14:03 | 50.26752 | 8.03317 | 9801 ft | 289 kts | 141° |
| 2026-05-06 14:03 | 50.25410 | 8.05692 | 9802 ft | 292 kts | 130° |
| 2026-05-06 14:03 | 50.24177 | 8.08220 | 9799 ft | 292 kts | 130° |
| 2026-05-06 14:03 | 50.22947 | 8.10717 | 9796 ft | 292 kts | 131° |
| 2026-05-06 14:04 | 50.21894 | 8.13449 | 9798 ft | 297 kts | 111° |
| 2026-05-06 14:04 | 50.21642 | 8.16632 | 9796 ft | 302 kts | 88° |
| 2026-05-06 14:04 | 50.21880 | 8.19905 | 9792 ft | 304 kts | 84° |
| 2026-05-06 14:04 | 50.22169 | 8.23183 | 9793 ft | 304 kts | 83° |
| 2026-05-06 14:05 | 50.22457 | 8.26427 | 9795 ft | 303 kts | 84° |
| 2026-05-06 14:05 | 50.22750 | 8.29707 | 9784 ft | 304 kts | 84° |
| 2026-05-06 14:05 | 50.23044 | 8.32960 | 9790 ft | 302 kts | 84° |
| 2026-05-06 14:05 | 50.23337 | 8.36205 | 9790 ft | 301 kts | 84° |
| 2026-05-06 14:06 | 50.23630 | 8.39448 | 9791 ft | 301 kts | 84° |
| 2026-05-06 14:06 | 50.23924 | 8.42659 | 9788 ft | 300 kts | 84° |
| 2026-05-06 14:06 | 50.24217 | 8.45877 | 9520 ft | 296 kts | 84° |
| 2026-05-06 14:06 | 50.24506 | 8.49063 | 9194 ft | 293 kts | 84° |
| 2026-05-06 14:07 | 50.24793 | 8.52172 | 8880 ft | 291 kts | 84° |
| 2026-05-06 14:07 | 50.25078 | 8.55301 | 8542 ft | 289 kts | 84° |
| 2026-05-06 14:07 | 50.25361 | 8.58408 | 8205 ft | 287 kts | 84° |
| 2026-05-06 14:07 | 50.25647 | 8.61468 | 7876 ft | 286 kts | 84° |
| 2026-05-06 14:08 | 50.25933 | 8.64554 | 7544 ft | 285 kts | 84° |
| 2026-05-06 14:08 | 50.26212 | 8.67625 | 7206 ft | 284 kts | 83° |
| 2026-05-06 14:08 | 50.26487 | 8.70635 | 6895 ft | 282 kts | 84° |
| 2026-05-06 14:08 | 50.26767 | 8.73676 | 6574 ft | 281 kts | 84° |
| 2026-05-06 14:09 | 50.27041 | 8.76697 | 6256 ft | 280 kts | 84° |
| 2026-05-06 14:09 | 50.27199 | 8.79708 | 5919 ft | 275 kts | 99° |
| 2026-05-06 14:09 | 50.26599 | 8.82444 | 5588 ft | 267 kts | 127° |
| 2026-05-06 14:09 | 50.25329 | 8.84521 | 5262 ft | 261 kts | 143° |
| 2026-05-06 14:10 | 50.23965 | 8.86330 | 4930 ft | 260 kts | 143° |
| 2026-05-06 14:10 | 50.22573 | 8.88127 | 4604 ft | 259 kts | 144° |
| 2026-05-06 14:10 | 50.21176 | 8.89909 | 4269 ft | 258 kts | 144° |
| 2026-05-06 14:10 | 50.19785 | 8.91657 | 4017 ft | 254 kts | 144° |
| 2026-05-06 14:11 | 50.18397 | 8.93253 | 3984 ft | 242 kts | 157° |
| 2026-05-06 14:11 | 50.16804 | 8.93770 | 3991 ft | 234 kts | 187° |
| 2026-05-06 14:11 | 50.15199 | 8.93396 | 3997 ft | 234 kts | 193° |
| 2026-05-06 14:11 | 50.13640 | 8.92662 | 3993 ft | 232 kts | 212° |
| 2026-05-06 14:12 | 50.12395 | 8.91135 | 4000 ft | 224 kts | 223° |
| 2026-05-06 14:12 | 50.11357 | 8.89422 | 3990 ft | 217 kts | 238° |
| 2026-05-06 14:12 | 50.10790 | 8.87355 | 3997 ft | 198 kts | 249° |
| 2026-05-06 14:12 | 50.10343 | 8.85438 | 3928 ft | 176 kts | 249° |
| 2026-05-06 14:13 | 50.09932 | 8.83691 | 3720 ft | 168 kts | 250° |
| 2026-05-06 14:13 | 50.09531 | 8.81991 | 3517 ft | 161 kts | 249° |
| 2026-05-06 14:13 | 50.09173 | 8.80470 | 3308 ft | 140 kts | 250° |
| 2026-05-06 14:13 | 50.08850 | 8.79104 | 3135 ft | 131 kts | 250° |
| 2026-05-06 14:14 | 50.08540 | 8.77790 | 2964 ft | 129 kts | 249° |
| 2026-05-06 14:14 | 50.08224 | 8.76497 | 2806 ft | 126 kts | 249° |
| 2026-05-06 14:14 | 50.07908 | 8.75245 | 2696 ft | 125 kts | 249° |
| 2026-05-06 14:14 | 50.07621 | 8.73952 | 2489 ft | 127 kts | 251° |
| 2026-05-06 14:15 | 50.07339 | 8.72657 | 2295 ft | 125 kts | 253° |
| 2026-05-06 14:15 | 50.07055 | 8.71382 | 2137 ft | 127 kts | 251° |
| 2026-05-06 14:15 | 50.06764 | 8.70108 | 1971 ft | 124 kts | 252° |
| 2026-05-06 14:15 | 50.06478 | 8.68847 | 1845 ft | 124 kts | 250° |
| 2026-05-06 14:16 | 50.06164 | 8.67585 | 1677 ft | 125 kts | 250° |
| 2026-05-06 14:16 | 50.05870 | 8.66325 | 1510 ft | 124 kts | 251° |
| 2026-05-06 14:16 | 50.05538 | 8.65095 | 1296 ft | 123 kts | 247° |
| 2026-05-06 14:16 | 50.05255 | 8.63829 | 1114 ft | 125 kts | 249° |
| 2026-05-06 14:17 | 50.04944 | 8.62557 | 974 ft | 127 kts | 245° |
| 2026-05-06 14:17 | 50.04648 | 8.61268 | 841 ft | 126 kts | 249° |
| 2026-05-06 14:17 | 50.04332 | 8.59997 | 583 ft | 124 kts | 246° |
| 2026-05-06 14:17 | 50.04032 | 8.58758 | 422 ft | 121 kts | 248° |
| 2026-05-06 14:18 | 50.03767 | 8.57654 | 359 ft | 88 kts | 249° |
| 2026-05-06 14:18 | 50.03686 | 8.57176 | 358 ft | 20 kts | 294° |
| 2026-05-06 14:18 | 50.03740 | 8.57035 | 358 ft | 14 kts | 302° |
| 2026-05-06 14:18 | 50.03779 | 8.56939 | 356 ft | 4 kts | 301° |
| 2026-05-06 14:19 | 50.03799 | 8.56886 | 357 ft | 8 kts | 302° |
| 2026-05-06 14:19 | 50.03834 | 8.56797 | 358 ft | 11 kts | 300° |
| 2026-05-06 14:19 | 50.03871 | 8.56707 | 355 ft | 8 kts | 310° |
| 2026-05-06 14:19 | 50.03923 | 8.56689 | 357 ft | 2 kts | 12° |
| 2026-05-06 14:20 | 50.03924 | 8.56689 | 357 ft | 0 kts | 12° |
| 2026-05-06 14:21 | 50.03929 | 8.56691 | 358 ft | 3 kts | 12° |
| 2026-05-06 14:22 | 50.03968 | 8.56705 | 355 ft | 8 kts | 13° |
| 2026-05-06 14:22 | 50.04037 | 8.56728 | 357 ft | 12 kts | 12° |
| 2026-05-06 14:22 | 50.04126 | 8.56757 | 361 ft | 15 kts | 11° |
| 2026-05-06 14:22 | 50.04171 | 8.56771 | 358 ft | 1 kts | 12° |
| 2026-05-06 14:23 | 50.04196 | 8.56780 | 358 ft | 6 kts | 12° |
| 2026-05-06 14:23 | 50.04245 | 8.56814 | 365 ft | 9 kts | 45° |
| 2026-05-06 14:23 | 50.04283 | 8.56918 | 359 ft | 13 kts | 69° |
| 2026-05-06 14:23 | 50.04318 | 8.57075 | 366 ft | 16 kts | 70° |
| 2026-05-06 14:24 | 50.04360 | 8.57259 | 363 ft | 20 kts | 70° |
| 2026-05-06 14:24 | 50.04411 | 8.57473 | 361 ft | 23 kts | 70° |
| 2026-05-06 14:24 | 50.04461 | 8.57678 | 369 ft | 20 kts | 69° |
| 2026-05-06 14:24 | 50.04511 | 8.57889 | 365 ft | 17 kts | 70° |
| 2026-05-06 14:25 | 50.04566 | 8.58027 | 362 ft | 18 kts | 17° |
| 2026-05-06 14:25 | 50.04686 | 8.57973 | 359 ft | 18 kts | 340° |
| 2026-05-06 14:25 | 50.04796 | 8.58023 | 360 ft | 21 kts | 67° |
| 2026-05-06 14:25 | 50.04843 | 8.58221 | 360 ft | 18 kts | 70° |
| 2026-05-06 14:26 | 50.04886 | 8.58409 | 360 ft | 20 kts | 68° |
| 2026-05-06 14:26 | 50.04930 | 8.58592 | 360 ft | 19 kts | 69° |
| 2026-05-06 14:26 | 50.04982 | 8.58806 | 361 ft | 23 kts | 69° |
| 2026-05-06 14:26 | 50.05030 | 8.59006 | 361 ft | 18 kts | 70° |
| 2026-05-06 14:27 | 50.05062 | 8.59142 | 363 ft | 11 kts | 70° |
| 2026-05-06 14:27 | 50.05103 | 8.59229 | 361 ft | 10 kts | 360° |
| 2026-05-06 14:27 | 50.05152 | 8.59198 | 359 ft | 6 kts | 337° |
| 2026-05-06 14:27 | 50.05178 | 8.59183 | 362 ft | 0 kts | 340° |